Time,TemperatureF,DewpointF,PressureIn,WindDirection,WindDirectionDegrees,WindSpeedMPH,WindSpeedGustMPH,Humidity,HourlyPrecipIn,Conditions,Clouds,dailyrainin,SoftwareType,DateUTC
2013-03-13 00:00:00,47.0,47.0,29.75,West,261,3.0,11.0,100,0.00,,---,0.49,VWS V13.00,2013-03-13 04:00:00,
2013-03-13 00:05:00,46.3,46.3,29.75,WNW,288,5.0,11.0,100,0.00,,---,0.49,VWS V13.00,2013-03-13 04:05:00,
2013-03-13 00:10:00,45.8,45.8,29.75,West,273,4.0,9.0,100,0.00,,---,0.00,VWS V13.00,2013-03-13 04:10:00,
2013-03-13 00:15:00,45.3,45.3,29.75,WNW,303,2.0,11.0,100,0.00,,---,0.00,VWS V13.00,2013-03-13 04:15:00,
2013-03-13 00:20:00,45.1,45.1,29.75,WNW,292,0.0,11.0,100,0.00,,---,0.00,VWS V13.00,2013-03-13 04:20:00,
2013-03-13 00:25:00,44.9,44.9,29.76,WNW,292,6.0,11.0,100,0.00,,---,0.00,VWS V13.00,2013-03-13 04:25:00,
2013-03-13 00:30:00,44.1,43.8,29.76,WNW,292,1.0,11.0,99,0.00,,---,0.00,VWS V13.00,2013-03-13 04:30:00,
2013-03-13 00:35:00,43.5,43.2,29.76,WNW,294,0.0,11.0,99,0.00,,---,0.00,VWS V13.00,2013-03-13 04:35:00,
2013-03-13 00:40:00,43.3,43.0,29.77,WNW,294,0.0,3.0,99,0.00,,---,0.00,VWS V13.00,2013-03-13 04:40:00,
2013-03-13 00:45:00,43.0,43.0,29.77,WNW,294,2.0,3.0,100,0.00,,---,0.00,VWS V13.00,2013-03-13 04:45:00,
2013-03-13 00:50:00,42.9,42.6,29.78,WNW,294,0.0,3.0,99,0.00,,---,0.00,VWS V13.00,2013-03-13 04:50:00,
2013-03-13 00:55:00,42.5,42.5,29.78,WNW,293,4.0,6.0,100,0.00,,---,0.00,VWS V13.00,2013-03-13 04:55:00,
2013-03-13 01:00:00,42.1,41.8,29.78,WNW,292,3.0,7.0,99,0.00,,---,0.00,VWS V13.00,2013-03-13 05:00:00,
2013-03-13 01:05:00,41.7,41.4,29.78,WNW,292,2.0,7.0,99,0.00,,---,0.00,VWS V13.00,2013-03-13 05:05:00,
2013-03-13 01:10:00,41.5,41.2,29.78,WNW,292,1.0,6.0,99,0.00,,---,0.00,VWS V13.00,2013-03-13 05:10:00,
2013-03-13 01:15:00,41.4,41.1,29.78,WNW,292,1.0,8.0,99,0.00,,---,0.00,VWS V13.00,2013-03-13 05:15:00,
2013-03-13 01:20:00,41.1,40.8,29.78,WNW,293,1.0,8.0,99,0.00,,---,0.00,VWS V13.00,2013-03-13 05:20:00,
2013-03-13 01:25:00,40.9,40.6,29.78,WNW,293,1.0,8.0,99,0.00,,---,0.00,VWS V13.00,2013-03-13 05:25:00,
2013-03-13 01:30:00,40.6,40.3,29.78,WNW,292,2.0,8.0,99,0.00,,---,0.00,VWS V13.00,2013-03-13 05:30:00,
2013-03-13 01:35:00,40.1,39.8,29.78,WNW,293,1.0,8.0,99,0.00,,---,0.00,VWS V13.00,2013-03-13 05:35:00,
2013-03-13 01:40:00,39.6,39.3,29.78,WNW,293,0.0,3.0,99,0.00,,---,0.00,VWS V13.00,2013-03-13 05:40:00,
2013-03-13 01:45:00,39.5,39.2,29.78,WNW,292,0.0,4.0,99,0.00,,---,0.00,VWS V13.00,2013-03-13 05:45:00,
2013-03-13 01:50:00,39.5,39.2,29.78,WNW,292,0.0,4.0,99,0.00,,---,0.00,VWS V13.00,2013-03-13 05:50:00,
2013-03-13 01:55:00,39.3,39.0,29.78,WNW,292,0.0,4.0,99,0.00,,---,0.00,VWS V13.00,2013-03-13 05:55:00,
2013-03-13 02:00:00,39.0,38.7,29.78,WNW,293,2.0,5.0,99,0.00,,---,0.00,VWS V13.00,2013-03-13 06:00:00,
2013-03-13 02:05:00,38.9,38.6,29.78,WNW,293,2.0,5.0,99,0.00,,---,0.00,VWS V13.00,2013-03-13 06:05:00,
2013-03-13 02:10:00,38.7,38.4,29.78,WNW,292,2.0,4.0,99,0.00,,---,0.00,VWS V13.00,2013-03-13 06:10:00,
2013-03-13 02:15:00,38.6,38.3,29.77,WNW,298,4.0,10.0,99,0.00,,---,0.00,VWS V13.00,2013-03-13 06:15:00,
2013-03-13 02:20:00,38.5,38.2,29.77,WNW,294,1.0,10.0,99,0.00,,---,0.00,VWS V13.00,2013-03-13 06:20:00,
2013-03-13 02:25:00,38.4,38.1,29.78,WNW,291,0.0,10.0,99,0.00,,---,0.00,VWS V13.00,2013-03-13 06:25:00,
2013-03-13 02:30:00,38.4,38.1,29.78,WNW,301,1.0,10.0,99,0.00,,---,0.00,VWS V13.00,2013-03-13 06:30:00,
2013-03-13 02:35:00,38.3,38.0,29.78,WNW,296,1.0,10.0,99,0.00,,---,0.00,VWS V13.00,2013-03-13 06:35:00,
2013-03-13 02:40:00,38.2,37.9,29.78,West,277,0.0,4.0,99,0.00,,---,0.00,VWS V13.00,2013-03-13 06:40:00,
2013-03-13 02:45:00,38.2,37.9,29.78,WNW,302,6.0,10.0,99,0.00,,---,0.00,VWS V13.00,2013-03-13 06:45:00,
2013-03-13 02:50:00,38.0,37.7,29.78,WNW,294,0.0,10.0,99,0.00,,---,0.00,VWS V13.00,2013-03-13 06:50:00,
2013-03-13 02:55:00,38.0,37.7,29.78,WNW,299,3.0,11.0,99,0.00,,---,0.00,VWS V13.00,2013-03-13 06:55:00,
2013-03-13 03:00:00,37.9,37.6,29.77,WNW,289,4.0,11.0,99,0.00,,---,0.00,VWS V13.00,2013-03-13 07:00:00,
2013-03-13 03:05:00,37.8,37.5,29.77,WNW,302,2.0,11.0,99,0.00,,---,0.00,VWS V13.00,2013-03-13 07:05:00,
2013-03-13 03:10:00,37.7,37.5,29.78,WNW,294,3.0,11.0,99,0.00,,---,0.00,VWS V13.00,2013-03-13 07:10:00,
2013-03-13 03:15:00,37.6,37.3,29.77,WNW,300,6.0,11.0,99,0.00,,---,0.00,VWS V13.00,2013-03-13 07:15:00,
2013-03-13 03:20:00,37.5,37.2,29.78,WNW,297,3.0,11.0,99,0.00,,---,0.00,VWS V13.00,2013-03-13 07:20:00,
2013-03-13 03:25:00,37.4,37.2,29.78,WNW,295,3.0,11.0,99,0.00,,---,0.00,VWS V13.00,2013-03-13 07:25:00,
2013-03-13 03:30:00,37.3,37.0,29.78,West,281,2.0,11.0,99,0.00,,---,0.00,VWS V13.00,2013-03-13 07:30:00,
2013-03-13 03:35:00,37.3,37.0,29.78,WNW,302,2.0,11.0,99,0.00,,---,0.00,VWS V13.00,2013-03-13 07:35:00,
2013-03-13 03:40:00,37.3,37.0,29.78,West,270,3.0,13.0,99,0.00,,---,0.00,VWS V13.00,2013-03-13 07:40:00,
2013-03-13 03:45:00,37.3,37.0,29.78,WNW,294,2.0,13.0,99,0.00,,---,0.00,VWS V13.00,2013-03-13 07:45:00,
2013-03-13 03:50:00,37.2,37.0,29.78,WNW,284,3.0,13.0,99,0.00,,---,0.00,VWS V13.00,2013-03-13 07:50:00,
2013-03-13 03:55:00,37.2,37.0,29.78,WSW,252,0.0,13.0,99,0.00,,---,0.00,VWS V13.00,2013-03-13 07:55:00,
2013-03-13 04:00:00,37.1,36.8,29.78,WNW,283,3.0,13.0,99,0.00,,---,0.00,VWS V13.00,2013-03-13 08:00:00,
2013-03-13 04:05:00,37.1,36.8,29.78,WNW,289,2.0,13.0,99,0.00,,---,0.00,VWS V13.00,2013-03-13 08:05:00,
2013-03-13 04:10:00,37.0,36.8,29.78,NNW,333,4.0,6.0,99,0.00,,---,0.00,VWS V13.00,2013-03-13 08:10:00,
2013-03-13 04:15:00,36.9,36.7,29.78,WNW,286,1.0,9.0,99,0.00,,---,0.00,VWS V13.00,2013-03-13 08:15:00,
2013-03-13 04:20:00,36.8,36.5,29.77,West,277,2.0,9.0,99,0.00,,---,0.00,VWS V13.00,2013-03-13 08:20:00,
2013-03-13 04:25:00,36.7,36.5,29.77,WNW,289,7.0,11.0,99,0.00,,---,0.00,VWS V13.00,2013-03-13 08:25:00,
2013-03-13 04:30:00,36.7,36.5,29.77,WNW,290,3.0,12.0,99,0.00,,---,0.00,VWS V13.00,2013-03-13 08:30:00,
2013-03-13 04:35:00,36.7,36.5,29.78,WNW,297,0.0,12.0,99,0.00,,---,0.00,VWS V13.00,2013-03-13 08:35:00,
2013-03-13 04:40:00,36.7,36.5,29.78,WNW,294,7.0,8.0,99,0.00,,---,0.00,VWS V13.00,2013-03-13 08:40:00,
2013-03-13 04:45:00,36.7,36.5,29.78,NW,306,4.0,8.0,99,0.00,,---,0.00,VWS V13.00,2013-03-13 08:45:00,
2013-03-13 04:50:00,36.7,36.5,29.77,NNW,333,2.0,9.0,99,0.00,,---,0.00,VWS V13.00,2013-03-13 08:50:00,
2013-03-13 04:55:00,36.6,36.3,29.77,NW,305,0.0,9.0,99,0.00,,---,0.00,VWS V13.00,2013-03-13 08:55:00,
2013-03-13 05:00:00,36.5,36.2,29.78,WNW,296,0.0,9.0,99,0.00,,---,0.00,VWS V13.00,2013-03-13 09:00:00,
2013-03-13 05:05:00,36.6,36.3,29.78,WNW,302,3.0,9.0,99,0.00,,---,0.00,VWS V13.00,2013-03-13 09:05:00,
2013-03-13 05:10:00,36.6,36.3,29.78,NW,317,3.0,10.0,99,0.00,,---,0.00,VWS V13.00,2013-03-13 09:10:00,
2013-03-13 05:15:00,36.5,36.2,29.78,WNW,292,2.0,10.0,99,0.00,,---,0.00,VWS V13.00,2013-03-13 09:15:00,
2013-03-13 05:20:00,36.5,36.2,29.79,NNW,340,5.0,10.0,99,0.00,,---,0.00,VWS V13.00,2013-03-13 09:20:00,
2013-03-13 05:25:00,36.5,36.2,29.79,West,267,4.0,11.0,99,0.00,,---,0.00,VWS V13.00,2013-03-13 09:25:00,
2013-03-13 05:30:00,36.6,36.3,29.79,NW,313,3.0,11.0,99,0.00,,---,0.00,VWS V13.00,2013-03-13 09:30:00,
2013-03-13 05:35:00,36.6,36.3,29.79,NW,309,0.0,14.0,99,0.00,,---,0.00,VWS V13.00,2013-03-13 09:35:00,
2013-03-13 05:40:00,36.6,36.3,29.79,NW,309,4.0,7.0,99,0.00,,---,0.00,VWS V13.00,2013-03-13 09:40:00,
2013-03-13 05:45:00,36.5,36.2,29.79,WNW,290,6.0,11.0,99,0.00,,---,0.00,VWS V13.00,2013-03-13 09:45:00,
2013-03-13 05:50:00,36.5,36.2,29.79,WNW,292,10.0,11.0,99,0.00,,---,0.00,VWS V13.00,2013-03-13 09:50:00,
2013-03-13 05:55:00,36.5,36.0,29.79,WNW,298,4.0,13.0,98,0.00,,---,0.00,VWS V13.00,2013-03-13 09:55:00,
2013-03-13 06:00:00,36.5,36.0,29.79,WNW,294,6.0,13.0,98,0.00,,---,0.00,VWS V13.00,2013-03-13 10:00:00,
2013-03-13 06:05:00,36.4,35.9,29.79,WNW,288,2.0,13.0,98,0.00,,---,0.00,VWS V13.00,2013-03-13 10:05:00,
2013-03-13 06:10:00,36.4,35.9,29.79,WNW,295,5.0,12.0,98,0.00,,---,0.00,VWS V13.00,2013-03-13 10:10:00,
2013-03-13 06:15:00,36.3,35.5,29.79,West,275,4.0,12.0,97,0.00,,---,0.00,VWS V13.00,2013-03-13 10:15:00,
2013-03-13 06:20:00,36.2,35.4,29.79,WNW,299,5.0,12.0,97,0.00,,---,0.00,VWS V13.00,2013-03-13 10:20:00,
2013-03-13 06:25:00,36.2,35.4,29.79,NW,306,10.0,12.0,97,0.00,,---,0.00,VWS V13.00,2013-03-13 10:25:00,
2013-03-13 06:30:00,36.2,35.4,29.79,West,269,2.0,12.0,97,0.00,,---,0.00,VWS V13.00,2013-03-13 10:30:00,
2013-03-13 06:35:00,36.1,35.1,29.79,NNE,16,2.0,12.0,96,0.00,,---,0.00,VWS V13.00,2013-03-13 10:35:00,
2013-03-13 06:40:00,36.0,35.0,29.79,NW,311,12.0,12.0,96,0.00,,---,0.00,VWS V13.00,2013-03-13 10:40:00,
2013-03-13 06:45:00,36.1,35.1,29.79,West,269,1.0,12.0,96,0.00,,---,0.00,VWS V13.00,2013-03-13 10:45:00,
2013-03-13 06:50:00,36.0,34.7,29.79,NW,304,4.0,12.0,95,0.00,,---,0.00,VWS V13.00,2013-03-13 10:50:00,
2013-03-13 06:55:00,36.0,34.7,29.79,WNW,284,4.0,12.0,95,0.00,,---,0.00,VWS V13.00,2013-03-13 10:55:00,
2013-03-13 07:00:00,35.9,34.6,29.78,NW,322,3.0,12.0,95,0.00,,---,0.00,VWS V13.00,2013-03-13 11:00:00,
2013-03-13 07:05:00,35.8,34.2,29.78,WNW,288,3.0,12.0,94,0.00,,---,0.00,VWS V13.00,2013-03-13 11:05:00,
2013-03-13 07:10:00,35.8,34.2,29.78,WNW,294,4.0,11.0,94,0.00,,---,0.00,VWS V13.00,2013-03-13 11:10:00,
2013-03-13 07:15:00,35.8,34.2,29.78,NW,323,5.0,11.0,94,0.00,,---,0.00,VWS V13.00,2013-03-13 11:15:00,
2013-03-13 07:20:00,35.8,34.2,29.78,WNW,301,7.0,11.0,94,0.00,,---,0.00,VWS V13.00,2013-03-13 11:20:00,
2013-03-13 07:25:00,35.8,34.2,29.78,WNW,288,5.0,13.0,94,0.00,,---,0.00,VWS V13.00,2013-03-13 11:25:00,
2013-03-13 07:30:00,35.9,34.1,29.78,NW,311,3.0,13.0,93,0.00,,---,0.00,VWS V13.00,2013-03-13 11:30:00,
2013-03-13 07:35:00,35.9,34.1,29.78,WNW,288,3.0,13.0,93,0.00,,---,0.00,VWS V13.00,2013-03-13 11:35:00,
2013-03-13 07:40:00,35.9,34.1,29.78,WNW,296,2.0,7.0,93,0.00,,---,0.00,VWS V13.00,2013-03-13 11:40:00,
2013-03-13 07:45:00,35.9,34.1,29.77,WNW,300,2.0,9.0,93,0.00,,---,0.00,VWS V13.00,2013-03-13 11:45:00,
2013-03-13 07:50:00,35.9,34.1,29.77,West,280,3.0,10.0,93,0.00,,---,0.00,VWS V13.00,2013-03-13 11:50:00,
2013-03-13 07:55:00,36.0,34.2,29.77,WNW,302,5.0,10.0,93,0.00,,---,0.00,VWS V13.00,2013-03-13 11:55:00,
2013-03-13 08:00:00,36.0,34.2,29.77,WNW,284,0.0,11.0,93,0.00,,---,0.00,VWS V13.00,2013-03-13 12:00:00,
2013-03-13 08:05:00,36.1,34.3,29.77,WNW,288,3.0,11.0,93,0.00,,---,0.00,VWS V13.00,2013-03-13 12:05:00,
2013-03-13 08:10:00,36.2,34.4,29.77,WNW,284,6.0,12.0,93,0.00,,---,0.00,VWS V13.00,2013-03-13 12:10:00,
2013-03-13 08:15:00,36.4,34.3,29.77,WNW,287,1.0,12.0,92,0.00,,---,0.00,VWS V13.00,2013-03-13 12:15:00,
2013-03-13 08:20:00,36.5,34.4,29.77,NW,322,2.0,12.0,92,0.00,,---,0.00,VWS V13.00,2013-03-13 12:20:00,
2013-03-13 08:25:00,36.7,34.3,29.77,WNW,290,0.0,12.0,91,0.00,,---,0.00,VWS V13.00,2013-03-13 12:25:00,
2013-03-13 08:30:00,36.9,34.5,29.77,NNW,348,3.0,12.0,91,0.00,,---,0.00,VWS V13.00,2013-03-13 12:30:00,
2013-03-13 08:35:00,37.1,34.4,29.76,WNW,296,2.0,12.0,90,0.00,,---,0.00,VWS V13.00,2013-03-13 12:35:00,
2013-03-13 08:40:00,37.2,34.5,29.76,NW,318,2.0,10.0,90,0.00,,---,0.00,VWS V13.00,2013-03-13 12:40:00,
2013-03-13 08:45:00,37.5,34.6,29.77,NNW,329,4.0,10.0,89,0.00,,---,0.00,VWS V13.00,2013-03-13 12:45:00,
2013-03-13 08:50:00,37.8,34.9,29.77,West,276,5.0,10.0,89,0.00,,---,0.00,VWS V13.00,2013-03-13 12:50:00,
2013-03-13 08:55:00,38.2,35.0,29.77,West,281,5.0,10.0,88,0.00,,---,0.00,VWS V13.00,2013-03-13 12:55:00,
2013-03-13 09:00:00,38.5,35.0,29.77,WSW,242,3.0,13.0,87,0.00,,---,0.00,VWS V13.00,2013-03-13 13:00:00,
2013-03-13 09:05:00,38.8,35.0,29.77,NW,318,4.0,15.0,86,0.00,,---,0.00,VWS V13.00,2013-03-13 13:05:00,
2013-03-13 09:10:00,39.1,35.0,29.77,NNW,346,6.0,11.0,85,0.00,,---,0.00,VWS V13.00,2013-03-13 13:10:00,
2013-03-13 09:15:00,39.5,35.1,29.77,West,274,3.0,11.0,84,0.00,,---,0.00,VWS V13.00,2013-03-13 13:15:00,
2013-03-13 09:20:00,39.8,35.1,29.77,WNW,287,1.0,11.0,83,0.00,,---,0.00,VWS V13.00,2013-03-13 13:20:00,
2013-03-13 09:25:00,40.1,35.1,29.77,NNW,329,10.0,11.0,82,0.00,,---,0.00,VWS V13.00,2013-03-13 13:25:00,
2013-03-13 09:30:00,40.5,35.1,29.77,NNW,327,3.0,11.0,81,0.00,,---,0.00,VWS V13.00,2013-03-13 13:30:00,
2013-03-13 09:35:00,41.0,35.3,29.77,NW,313,2.0,11.0,80,0.00,,---,0.00,VWS V13.00,2013-03-13 13:35:00,
2013-03-13 09:40:00,41.3,35.0,29.77,WNW,287,7.0,9.0,78,0.00,,---,0.00,VWS V13.00,2013-03-13 13:40:00,
2013-03-13 09:45:00,41.6,35.3,29.76,NW,304,4.0,9.0,78,0.00,,---,0.00,VWS V13.00,2013-03-13 13:45:00,
2013-03-13 09:50:00,41.7,34.7,29.76,West,269,7.0,10.0,76,0.00,,---,0.00,VWS V13.00,2013-03-13 13:50:00,
2013-03-13 09:55:00,42.0,35.0,29.76,NW,318,3.0,10.0,76,0.00,,---,0.00,VWS V13.00,2013-03-13 13:55:00,
2013-03-13 10:00:00,42.0,34.3,29.76,WNW,292,3.0,12.0,74,0.00,,---,0.00,VWS V13.00,2013-03-13 14:00:00,
2013-03-13 10:05:00,42.2,34.9,29.76,NW,304,4.0,12.0,75,0.00,,---,0.00,VWS V13.00,2013-03-13 14:05:00,
2013-03-13 10:10:00,42.6,34.9,29.76,WNW,290,5.0,11.0,74,0.00,,---,0.00,VWS V13.00,2013-03-13 14:10:00,
2013-03-13 10:15:00,42.8,34.4,29.76,West,267,3.0,11.0,72,0.00,,---,0.00,VWS V13.00,2013-03-13 14:15:00,
2013-03-13 10:20:00,43.1,34.7,29.76,WNW,300,4.0,11.0,72,0.00,,---,0.00,VWS V13.00,2013-03-13 14:20:00,
2013-03-13 10:25:00,43.6,34.8,29.76,NNW,342,3.0,11.0,71,0.00,,---,0.00,VWS V13.00,2013-03-13 14:25:00,
2013-03-13 10:30:00,44.0,34.9,29.76,NW,319,6.0,12.0,70,0.00,,---,0.00,VWS V13.00,2013-03-13 14:30:00,
2013-03-13 10:35:00,44.1,34.6,29.76,NNW,341,3.0,12.0,69,0.00,,---,0.00,VWS V13.00,2013-03-13 14:35:00,
2013-03-13 10:40:00,44.0,34.5,29.76,West,281,3.0,6.0,69,0.00,,---,0.00,VWS V13.00,2013-03-13 14:40:00,
2013-03-13 10:45:00,43.8,33.9,29.76,NW,319,4.0,7.0,68,0.00,,---,0.00,VWS V13.00,2013-03-13 14:45:00,
2013-03-13 10:50:00,44.1,34.6,29.76,WNW,292,2.0,7.0,69,0.00,,---,0.00,VWS V13.00,2013-03-13 14:50:00,
2013-03-13 10:55:00,44.4,34.1,29.76,WNW,294,4.0,11.0,67,0.00,,---,0.00,VWS V13.00,2013-03-13 14:55:00,
2013-03-13 11:00:00,44.4,34.1,29.75,WNW,295,5.0,11.0,67,0.00,,---,0.00,VWS V13.00,2013-03-13 15:00:00,
2013-03-13 11:05:00,44.6,34.3,29.75,WNW,296,2.0,11.0,67,0.00,,---,0.00,VWS V13.00,2013-03-13 15:05:00,
2013-03-13 11:10:00,45.6,34.5,29.76,WNW,300,4.0,10.0,65,0.00,,---,0.00,VWS V13.00,2013-03-13 15:10:00,
2013-03-13 11:15:00,45.8,34.3,29.76,NW,326,2.0,11.0,64,0.00,,---,0.00,VWS V13.00,2013-03-13 15:15:00,
2013-03-13 11:20:00,45.8,34.3,29.76,WNW,285,2.0,11.0,64,0.00,,---,0.00,VWS V13.00,2013-03-13 15:20:00,
2013-03-13 11:25:00,46.0,34.5,29.76,NNW,340,3.0,11.0,64,0.00,,---,0.00,VWS V13.00,2013-03-13 15:25:00,
2013-03-13 11:30:00,45.7,34.2,29.75,WNW,283,2.0,11.0,64,0.00,,---,0.00,VWS V13.00,2013-03-13 15:30:00,
2013-03-13 11:35:00,45.1,33.7,29.76,West,259,5.0,12.0,64,0.00,,---,0.00,VWS V13.00,2013-03-13 15:35:00,
2013-03-13 11:40:00,45.1,34.0,29.76,WNW,286,9.0,9.0,65,0.00,,---,0.00,VWS V13.00,2013-03-13 15:40:00,
2013-03-13 11:45:00,45.4,34.3,29.76,WNW,290,4.0,10.0,65,0.00,,---,0.00,VWS V13.00,2013-03-13 15:45:00,
2013-03-13 11:50:00,45.0,34.0,29.76,West,278,3.0,10.0,65,0.00,,---,0.00,VWS V13.00,2013-03-13 15:50:00,
2013-03-13 11:55:00,44.8,34.2,29.76,NW,309,0.0,12.0,66,0.00,,---,0.00,VWS V13.00,2013-03-13 15:55:00,
2013-03-13 12:00:00,45.3,33.9,29.76,NW,313,5.0,12.0,64,0.00,,---,0.00,VWS V13.00,2013-03-13 16:00:00,
2013-03-13 12:05:00,45.3,33.9,29.76,WNW,299,4.0,13.0,64,0.00,,---,0.00,VWS V13.00,2013-03-13 16:05:00,
2013-03-13 12:10:00,45.0,34.0,29.77,West,274,1.0,11.0,65,0.00,,---,0.00,VWS V13.00,2013-03-13 16:10:00,
2013-03-13 12:15:00,45.0,33.6,29.76,West,280,8.0,11.0,64,0.00,,---,0.00,VWS V13.00,2013-03-13 16:15:00,
2013-03-13 12:20:00,45.0,33.2,29.77,NW,315,6.0,12.0,63,0.00,,---,0.00,VWS V13.00,2013-03-13 16:20:00,
2013-03-13 12:25:00,44.6,33.2,29.76,WNW,290,5.0,12.0,64,0.00,,---,0.00,VWS V13.00,2013-03-13 16:25:00,
2013-03-13 12:30:00,44.3,32.9,29.76,NW,309,7.0,14.0,64,0.00,,---,0.00,VWS V13.00,2013-03-13 16:30:00,
2013-03-13 12:35:00,44.1,32.3,29.76,WNW,290,11.0,14.0,63,0.00,,---,0.00,VWS V13.00,2013-03-13 16:35:00,
2013-03-13 12:40:00,44.3,32.5,29.76,WNW,296,5.0,13.0,63,0.00,,---,0.00,VWS V13.00,2013-03-13 16:40:00,
2013-03-13 12:45:00,45.0,32.4,29.76,WNW,284,2.0,13.0,61,0.00,,---,0.00,VWS V13.00,2013-03-13 16:45:00,
2013-03-13 12:50:00,45.7,32.2,29.76,WNW,286,1.0,14.0,59,0.00,,---,0.00,VWS V13.00,2013-03-13 16:50:00,
2013-03-13 12:55:00,46.0,32.1,29.76,WSW,246,4.0,14.0,58,0.00,,---,0.00,VWS V13.00,2013-03-13 16:55:00,
2013-03-13 13:00:00,46.3,32.3,29.76,WNW,298,5.0,14.0,58,0.00,,---,0.00,VWS V13.00,2013-03-13 17:00:00,
2013-03-13 13:05:00,46.6,32.6,29.75,North,355,3.0,14.0,58,0.00,,---,0.00,VWS V13.00,2013-03-13 17:05:00,
2013-03-13 13:10:00,45.8,32.7,29.76,WSW,252,4.0,9.0,60,0.00,,---,0.00,VWS V13.00,2013-03-13 17:10:00,
2013-03-13 13:15:00,45.0,32.0,29.76,WNW,284,6.0,12.0,60,0.00,,---,0.00,VWS V13.00,2013-03-13 17:15:00,
2013-03-13 13:20:00,44.5,31.9,29.76,West,279,3.0,12.0,61,0.00,,---,0.00,VWS V13.00,2013-03-13 17:20:00,
2013-03-13 13:25:00,44.3,32.1,29.76,West,263,4.0,12.0,62,0.00,,---,0.00,VWS V13.00,2013-03-13 17:25:00,
2013-03-13 13:30:00,44.9,32.7,29.76,West,281,2.0,12.0,62,0.00,,---,0.00,VWS V13.00,2013-03-13 17:30:00,
2013-03-13 13:35:00,45.4,32.3,29.75,NW,321,3.0,12.0,60,0.00,,---,0.00,VWS V13.00,2013-03-13 17:35:00,
2013-03-13 13:40:00,45.3,32.2,29.76,WSW,254,3.0,8.0,60,0.00,,---,0.00,VWS V13.00,2013-03-13 17:40:00,
2013-03-13 13:45:00,44.8,31.8,29.75,WNW,294,6.0,13.0,60,0.00,,---,0.00,VWS V13.00,2013-03-13 17:45:00,
2013-03-13 13:50:00,45.0,31.5,29.75,WNW,292,10.0,13.0,59,0.00,,---,0.00,VWS V13.00,2013-03-13 17:50:00,
2013-03-13 13:55:00,45.3,31.8,29.76,WNW,284,4.0,13.0,59,0.00,,---,0.00,VWS V13.00,2013-03-13 17:55:00,
2013-03-13 14:00:00,45.3,31.4,29.75,WNW,296,5.0,13.0,58,0.00,,---,0.00,VWS V13.00,2013-03-13 18:00:00,
2013-03-13 14:05:00,45.4,30.6,29.75,NW,304,3.0,13.0,56,0.00,,---,0.00,VWS V13.00,2013-03-13 18:05:00,
2013-03-13 14:10:00,46.2,30.9,29.75,West,266,2.0,8.0,55,0.00,,---,0.00,VWS V13.00,2013-03-13 18:10:00,
2013-03-13 14:15:00,46.8,30.6,29.75,NW,304,3.0,10.0,53,0.00,,---,0.00,VWS V13.00,2013-03-13 18:15:00,
2013-03-13 14:20:00,47.4,30.7,29.75,WSW,248,3.0,10.0,52,0.00,,---,0.00,VWS V13.00,2013-03-13 18:20:00,
2013-03-13 14:25:00,46.8,30.6,29.75,WSW,252,0.0,13.0,53,0.00,,---,0.00,VWS V13.00,2013-03-13 18:25:00,
2013-03-13 14:30:00,46.4,30.2,29.74,West,265,2.0,13.0,53,0.00,,---,0.00,VWS V13.00,2013-03-13 18:30:00,
2013-03-13 14:35:00,46.6,29.9,29.74,WNW,285,5.0,13.0,52,0.00,,---,0.00,VWS V13.00,2013-03-13 18:35:00,
2013-03-13 14:40:00,47.3,30.1,29.74,WNW,296,3.0,7.0,51,0.00,,---,0.00,VWS V13.00,2013-03-13 18:40:00,
2013-03-13 14:45:00,47.4,30.7,29.74,WNW,287,2.0,7.0,52,0.00,,---,0.00,VWS V13.00,2013-03-13 18:45:00,
2013-03-13 14:50:00,47.5,29.8,29.74,SW,216,4.0,9.0,50,0.00,,---,0.00,VWS V13.00,2013-03-13 18:50:00,
2013-03-13 14:55:00,46.9,28.8,29.74,WSW,258,5.0,16.0,49,0.00,,---,0.00,VWS V13.00,2013-03-13 18:55:00,
2013-03-13 15:00:00,46.8,28.7,29.74,WNW,294,6.0,16.0,49,0.00,,---,0.00,VWS V13.00,2013-03-13 19:00:00,
2013-03-13 15:05:00,46.9,29.7,29.74,WNW,303,3.0,16.0,51,0.00,,---,0.00,VWS V13.00,2013-03-13 19:05:00,
2013-03-13 15:10:00,47.0,29.3,29.73,West,278,4.0,12.0,50,0.00,,---,0.00,VWS V13.00,2013-03-13 19:10:00,
2013-03-13 15:15:00,47.2,30.5,29.73,WNW,285,1.0,12.0,52,0.00,,---,0.00,VWS V13.00,2013-03-13 19:15:00,
2013-03-13 15:20:00,47.2,29.0,29.74,NNW,341,7.0,12.0,49,0.00,,---,0.00,VWS V13.00,2013-03-13 19:20:00,
2013-03-13 15:25:00,47.1,28.9,29.74,West,269,7.0,12.0,49,0.00,,---,0.00,VWS V13.00,2013-03-13 19:25:00,
2013-03-13 15:30:00,46.7,29.1,29.74,WNW,292,2.0,12.0,50,0.00,,---,0.00,VWS V13.00,2013-03-13 19:30:00,
2013-03-13 15:35:00,46.9,29.2,29.73,WSW,248,4.0,12.0,50,0.00,,---,0.00,VWS V13.00,2013-03-13 19:35:00,
2013-03-13 15:40:00,47.0,29.3,29.74,WNW,289,3.0,11.0,50,0.00,,---,0.00,VWS V13.00,2013-03-13 19:40:00,
2013-03-13 15:45:00,47.2,30.5,29.74,North,360,4.0,11.0,52,0.00,,---,0.00,VWS V13.00,2013-03-13 19:45:00,
2013-03-13 15:50:00,47.6,29.9,29.74,WNW,283,5.0,11.0,50,0.00,,---,0.00,VWS V13.00,2013-03-13 19:50:00,
2013-03-13 15:55:00,46.8,29.6,29.74,WNW,291,6.0,11.0,51,0.00,,---,0.00,VWS V13.00,2013-03-13 19:55:00,
2013-03-13 16:00:00,46.6,29.0,29.73,NNW,331,3.0,11.0,50,0.00,,---,0.00,VWS V13.00,2013-03-13 20:00:00,
2013-03-13 16:05:00,46.8,30.1,29.73,WNW,284,6.0,11.0,52,0.00,,---,0.00,VWS V13.00,2013-03-13 20:05:00,
2013-03-13 16:10:00,46.6,29.0,29.74,West,281,4.0,11.0,50,0.00,,---,0.00,VWS V13.00,2013-03-13 20:10:00,
2013-03-13 16:15:00,45.7,28.6,29.74,WNW,283,2.0,11.0,51,0.00,,---,0.00,VWS V13.00,2013-03-13 20:15:00,
2013-03-13 16:20:00,45.7,29.1,29.74,NW,323,2.0,11.0,52,0.00,,---,0.00,VWS V13.00,2013-03-13 20:20:00,
2013-03-13 16:25:00,45.5,29.8,29.74,NW,318,1.0,11.0,54,0.00,,---,0.00,VWS V13.00,2013-03-13 20:25:00,
2013-03-13 16:30:00,45.7,29.1,29.74,West,277,4.0,14.0,52,0.00,,---,0.00,VWS V13.00,2013-03-13 20:30:00,
2013-03-13 16:35:00,46.1,29.5,29.74,North,360,10.0,14.0,52,0.00,,---,0.00,VWS V13.00,2013-03-13 20:35:00,
2013-03-13 16:40:00,46.3,28.2,29.74,NNW,331,5.0,11.0,49,0.00,,---,0.00,VWS V13.00,2013-03-13 20:40:00,
2013-03-13 16:45:00,46.2,28.1,29.74,WNW,284,3.0,12.0,49,0.00,,---,0.00,VWS V13.00,2013-03-13 20:45:00,
2013-03-13 16:50:00,46.0,27.4,29.74,NW,310,7.0,12.0,48,0.00,,---,0.00,VWS V13.00,2013-03-13 20:50:00,
2013-03-13 16:55:00,46.0,26.4,29.74,NW,311,4.0,14.0,46,0.00,,---,0.00,VWS V13.00,2013-03-13 20:55:00,
2013-03-13 17:00:00,46.1,27.5,29.74,NW,304,1.0,14.0,48,0.00,,---,0.00,VWS V13.00,2013-03-13 21:00:00,
2013-03-13 17:05:00,45.7,25.6,29.75,NW,309,13.0,14.0,45,0.00,,---,0.00,VWS V13.00,2013-03-13 21:05:00,
2013-03-13 17:10:00,45.0,25.5,29.75,NNW,345,2.0,7.0,46,0.00,,---,0.00,VWS V13.00,2013-03-13 21:10:00,
2013-03-13 17:15:00,44.3,25.9,29.75,NNW,329,11.0,12.0,48,0.00,,---,0.00,VWS V13.00,2013-03-13 21:15:00,
2013-03-13 17:20:00,43.8,26.4,29.75,WNW,293,6.0,12.0,50,0.00,,---,0.00,VWS V13.00,2013-03-13 21:20:00,
2013-03-13 17:25:00,43.9,27.0,29.75,WNW,283,3.0,12.0,51,0.00,,---,0.00,VWS V13.00,2013-03-13 21:25:00,
2013-03-13 17:30:00,43.7,26.8,29.75,NNW,329,1.0,12.0,51,0.00,,---,0.00,VWS V13.00,2013-03-13 21:30:00,
2013-03-13 17:35:00,43.5,26.6,29.75,West,281,3.0,16.0,51,0.00,,---,0.00,VWS V13.00,2013-03-13 21:35:00,
2013-03-13 17:40:00,43.6,26.2,29.75,West,279,1.0,6.0,50,0.00,,---,0.00,VWS V13.00,2013-03-13 21:40:00,
2013-03-13 17:45:00,43.6,26.2,29.75,NW,308,1.0,7.0,50,0.00,,---,0.00,VWS V13.00,2013-03-13 21:45:00,
2013-03-13 17:50:00,43.3,25.9,29.75,NW,310,0.0,7.0,50,0.00,,---,0.00,VWS V13.00,2013-03-13 21:50:00,
2013-03-13 17:55:00,43.0,26.1,29.75,WNW,288,3.0,10.0,51,0.00,,---,0.00,VWS V13.00,2013-03-13 21:55:00,
2013-03-13 18:00:00,42.7,26.3,29.75,WNW,295,4.0,10.0,52,0.00,,---,0.00,VWS V13.00,2013-03-13 22:00:00,
2013-03-13 18:05:00,42.6,26.2,29.75,NW,308,1.0,10.0,52,0.00,,---,0.00,VWS V13.00,2013-03-13 22:05:00,
2013-03-13 18:10:00,42.3,26.4,29.75,NW,318,2.0,8.0,53,0.00,,---,0.00,VWS V13.00,2013-03-13 22:10:00,
2013-03-13 18:15:00,42.1,26.7,29.75,WNW,298,3.0,8.0,54,0.00,,---,0.00,VWS V13.00,2013-03-13 22:15:00,
2013-03-13 18:20:00,41.8,26.8,29.75,WNW,290,1.0,12.0,55,0.00,,---,0.00,VWS V13.00,2013-03-13 22:20:00,
2013-03-13 18:25:00,41.5,25.7,29.76,WNW,298,2.0,12.0,53,0.00,,---,0.00,VWS V13.00,2013-03-13 22:25:00,
2013-03-13 18:30:00,41.3,25.9,29.76,WNW,294,5.0,12.0,54,0.00,,---,0.00,VWS V13.00,2013-03-13 22:30:00,
2013-03-13 18:35:00,41.1,25.3,29.76,West,281,3.0,12.0,53,0.00,,---,0.00,VWS V13.00,2013-03-13 22:35:00,
2013-03-13 18:40:00,40.8,25.0,29.76,WNW,282,1.0,4.0,53,0.00,,---,0.00,VWS V13.00,2013-03-13 22:40:00,
2013-03-13 18:45:00,40.5,25.2,29.76,WNW,284,0.0,9.0,54,0.00,,---,0.00,VWS V13.00,2013-03-13 22:45:00,
2013-03-13 18:50:00,40.2,25.3,29.77,WNW,284,2.0,9.0,55,0.00,,---,0.00,VWS V13.00,2013-03-13 22:50:00,
2013-03-13 18:55:00,40.0,25.1,29.77,WNW,284,4.0,9.0,55,0.00,,---,0.00,VWS V13.00,2013-03-13 22:55:00,
2013-03-13 19:00:00,39.8,24.5,29.77,NW,317,6.0,12.0,54,0.00,,---,0.00,VWS V13.00,2013-03-13 23:00:00,
2013-03-13 19:05:00,40.0,25.6,29.77,WNW,283,3.0,12.0,56,0.00,,---,0.00,VWS V13.00,2013-03-13 23:05:00,
2013-03-13 19:10:00,39.8,24.5,29.77,WNW,302,3.0,8.0,54,0.00,,---,0.00,VWS V13.00,2013-03-13 23:10:00,
2013-03-13 19:15:00,39.7,24.9,29.77,WNW,288,2.0,8.0,55,0.00,,---,0.00,VWS V13.00,2013-03-13 23:15:00,
2013-03-13 19:20:00,39.5,24.7,29.77,WNW,290,1.0,8.0,55,0.00,,---,0.00,VWS V13.00,2013-03-13 23:20:00,
2013-03-13 19:25:00,39.3,24.5,29.77,WNW,288,2.0,8.0,55,0.00,,---,0.00,VWS V13.00,2013-03-13 23:25:00,
2013-03-13 19:30:00,39.0,24.2,29.77,WNW,287,2.0,8.0,55,0.00,,---,0.00,VWS V13.00,2013-03-13 23:30:00,
2013-03-13 19:35:00,38.8,24.5,29.78,WNW,288,1.0,8.0,56,0.00,,---,0.00,VWS V13.00,2013-03-13 23:35:00,
2013-03-13 19:40:00,38.5,24.2,29.77,WNW,288,2.0,3.0,56,0.00,,---,0.00,VWS V13.00,2013-03-13 23:40:00,
2013-03-13 19:45:00,38.2,24.3,29.77,WNW,286,0.0,5.0,57,0.00,,---,0.00,VWS V13.00,2013-03-13 23:45:00,
2013-03-13 19:50:00,37.9,24.5,29.77,WNW,286,0.0,5.0,58,0.00,,---,0.00,VWS V13.00,2013-03-13 23:50:00,
2013-03-13 19:55:00,37.7,24.3,29.77,WNW,286,1.0,5.0,58,0.00,,---,0.00,VWS V13.00,2013-03-13 23:55:00,
2013-03-13 20:00:00,37.5,24.1,29.78,WNW,286,0.0,5.0,58,0.00,,---,0.00,VWS V13.00,2013-03-14 00:00:00,
2013-03-13 20:05:00,37.4,24.4,29.78,WNW,286,0.0,5.0,59,0.00,,---,0.00,VWS V13.00,2013-03-14 00:05:00,
2013-03-13 20:10:00,37.1,24.5,29.78,WNW,286,0.0,3.0,60,0.00,,---,0.00,VWS V13.00,2013-03-14 00:10:00,
2013-03-13 20:15:00,36.9,24.3,29.78,WNW,286,0.0,3.0,60,0.00,,---,0.00,VWS V13.00,2013-03-14 00:15:00,
2013-03-13 20:20:00,36.7,24.5,29.78,WNW,286,0.0,3.0,61,0.00,,---,0.00,VWS V13.00,2013-03-14 00:20:00,
2013-03-13 20:25:00,36.4,23.9,29.79,WNW,286,1.0,3.0,60,0.00,,---,0.00,VWS V13.00,2013-03-14 00:25:00,
2013-03-13 20:30:00,36.3,23.8,29.79,WNW,286,0.0,3.0,60,0.00,,---,0.00,VWS V13.00,2013-03-14 00:30:00,
2013-03-13 20:35:00,36.2,23.7,29.79,WNW,286,0.0,3.0,60,0.00,,---,0.00,VWS V13.00,2013-03-14 00:35:00,
2013-03-13 20:40:00,36.0,23.9,29.80,WNW,286,0.0,1.0,61,0.00,,---,0.00,VWS V13.00,2013-03-14 00:40:00,
2013-03-13 20:45:00,35.9,23.8,29.80,WNW,286,0.0,1.0,61,0.00,,---,0.00,VWS V13.00,2013-03-14 00:45:00,
2013-03-13 20:50:00,35.8,23.7,29.80,WNW,286,0.0,4.0,61,0.00,,---,0.00,VWS V13.00,2013-03-14 00:50:00,
2013-03-13 20:55:00,35.8,24.1,29.80,WNW,286,0.0,4.0,62,0.00,,---,0.00,VWS V13.00,2013-03-14 00:55:00,
2013-03-13 21:00:00,35.7,23.6,29.80,WNW,286,0.0,4.0,61,0.00,,---,0.00,VWS V13.00,2013-03-14 01:00:00,
2013-03-13 21:05:00,35.6,23.5,29.80,WNW,286,0.0,4.0,61,0.00,,---,0.00,VWS V13.00,2013-03-14 01:05:00,
2013-03-13 21:10:00,35.6,23.5,29.79,WNW,286,0.0,2.0,61,0.00,,---,0.00,VWS V13.00,2013-03-14 01:10:00,
2013-03-13 21:15:00,35.6,23.1,29.80,WNW,286,0.0,2.0,60,0.00,,---,0.00,VWS V13.00,2013-03-14 01:15:00,
2013-03-13 21:20:00,35.5,23.0,29.80,WNW,286,1.0,2.0,60,0.00,,---,0.00,VWS V13.00,2013-03-14 01:20:00,
2013-03-13 21:25:00,35.3,23.2,29.80,WNW,285,0.0,4.0,61,0.00,,---,0.00,VWS V13.00,2013-03-14 01:25:00,
2013-03-13 21:30:00,35.2,23.1,29.80,WNW,284,0.0,4.0,61,0.00,,---,0.00,VWS V13.00,2013-03-14 01:30:00,
2013-03-13 21:35:00,35.2,23.5,29.79,WNW,286,0.0,4.0,62,0.00,,---,0.00,VWS V13.00,2013-03-14 01:35:00,
2013-03-13 21:40:00,35.0,23.7,29.79,WNW,284,0.0,3.0,63,0.00,,---,0.00,VWS V13.00,2013-03-14 01:40:00,
2013-03-13 21:45:00,34.9,23.6,29.79,WNW,284,0.0,3.0,63,0.00,,---,0.00,VWS V13.00,2013-03-14 01:45:00,
2013-03-13 21:50:00,34.7,23.8,29.79,WNW,284,0.0,3.0,64,0.00,,---,0.00,VWS V13.00,2013-03-14 01:50:00,
2013-03-13 21:55:00,34.4,24.2,29.79,WNW,284,3.0,5.0,66,0.00,,---,0.00,VWS V13.00,2013-03-14 01:55:00,
2013-03-13 22:00:00,34.4,23.5,29.78,West,265,1.0,7.0,64,0.00,,---,0.00,VWS V13.00,2013-03-14 02:00:00,
2013-03-13 22:05:00,35.0,23.3,29.78,West,271,1.0,7.0,62,0.00,,---,0.00,VWS V13.00,2013-03-14 02:05:00,
2013-03-13 22:10:00,35.2,23.5,29.78,West,270,3.0,4.0,62,0.00,,---,0.00,VWS V13.00,2013-03-14 02:10:00,
2013-03-13 22:15:00,35.4,23.3,29.78,WNW,283,0.0,5.0,61,0.00,,---,0.00,VWS V13.00,2013-03-14 02:15:00,
2013-03-13 22:20:00,35.5,23.4,29.78,WNW,283,2.0,6.0,61,0.00,,---,0.00,VWS V13.00,2013-03-14 02:20:00,
2013-03-13 22:25:00,35.4,23.3,29.78,WNW,284,0.0,6.0,61,0.00,,---,0.00,VWS V13.00,2013-03-14 02:25:00,
2013-03-13 22:30:00,35.2,23.1,29.78,WNW,284,1.0,6.0,61,0.00,,---,0.00,VWS V13.00,2013-03-14 02:30:00,
2013-03-13 22:35:00,35.0,22.9,29.79,WNW,283,2.0,6.0,61,0.00,,---,0.00,VWS V13.00,2013-03-14 02:35:00,
2013-03-13 22:40:00,34.9,22.8,29.78,West,276,1.0,3.0,61,0.00,,---,0.00,VWS V13.00,2013-03-14 02:40:00,
2013-03-13 22:45:00,34.8,23.1,29.78,West,277,0.0,4.0,62,0.00,,---,0.00,VWS V13.00,2013-03-14 02:45:00,
2013-03-13 22:50:00,34.7,23.0,29.78,West,277,0.0,5.0,62,0.00,,---,0.00,VWS V13.00,2013-03-14 02:50:00,
2013-03-13 22:55:00,34.6,23.3,29.78,West,271,0.0,5.0,63,0.00,,---,0.00,VWS V13.00,2013-03-14 02:55:00,
2013-03-13 23:00:00,34.4,23.1,29.79,West,273,1.0,5.0,63,0.00,,---,0.00,VWS V13.00,2013-03-14 03:00:00,
2013-03-13 23:05:00,34.4,23.1,29.79,West,274,3.0,6.0,63,0.00,,---,0.00,VWS V13.00,2013-03-14 03:05:00,
2013-03-13 23:10:00,34.4,23.5,29.79,West,279,3.0,6.0,64,0.00,,---,0.00,VWS V13.00,2013-03-14 03:10:00,
2013-03-13 23:15:00,34.4,23.1,29.79,West,271,2.0,6.0,63,0.00,,---,0.00,VWS V13.00,2013-03-14 03:15:00,
2013-03-13 23:20:00,34.2,23.3,29.79,West,266,1.0,6.0,64,0.00,,---,0.00,VWS V13.00,2013-03-14 03:20:00,
2013-03-13 23:25:00,34.1,23.6,29.78,West,268,2.0,6.0,65,0.00,,---,0.00,VWS V13.00,2013-03-14 03:25:00,
2013-03-13 23:30:00,34.3,23.4,29.78,West,267,3.0,6.0,64,0.00,,---,0.00,VWS V13.00,2013-03-14 03:30:00,
2013-03-13 23:35:00,34.2,23.3,29.78,West,268,1.0,6.0,64,0.00,,---,0.00,VWS V13.00,2013-03-14 03:35:00,
2013-03-13 23:40:00,34.0,23.1,29.78,West,268,2.0,4.0,64,0.00,,---,0.00,VWS V13.00,2013-03-14 03:40:00,
2013-03-13 23:45:00,33.9,23.0,29.78,West,268,2.0,4.0,64,0.00,,---,0.00,VWS V13.00,2013-03-14 03:45:00,
2013-03-13 23:50:00,33.8,22.9,29.78,West,270,0.0,5.0,64,0.00,,---,0.00,VWS V13.00,2013-03-14 03:50:00,
2013-03-13 23:55:00,33.7,22.8,29.78,West,271,3.0,5.0,64,0.00,,---,0.00,VWS V13.00,2013-03-14 03:55:00,